createdAt,value
2023-01-07T00:00:54.161Z,29.10
2023-01-07T00:03:21.379Z,28.60
2023-01-07T00:05:48.382Z,29.40
2023-01-07T00:08:15.312Z,29.60
2023-01-07T00:10:42.541Z,29.80
2023-01-07T00:13:09.539Z,29.50
2023-01-07T00:15:36.434Z,28.70
2023-01-07T00:18:03.306Z,28.10
2023-01-07T00:20:30.232Z,28.80
2023-01-07T00:22:57.163Z,29.30
2023-01-07T00:25:24.141Z,29.60
2023-01-07T00:27:51.306Z,29.70
2023-01-07T00:30:18.241Z,30.10
2023-01-07T00:32:59.641Z,30.30
2023-01-07T00:35:26.523Z,30.50
2023-01-07T00:37:54.120Z,30.40
2023-01-07T00:40:21.548Z,30.60
2023-01-07T00:42:54.384Z,30.90
2023-01-07T00:45:22.403Z,30.60
2023-01-07T00:47:49.508Z,30.50
2023-01-07T00:50:16.489Z,30.60
2023-01-07T00:52:43.481Z,30.40
2023-01-07T00:55:11.215Z,30.70
2023-01-07T00:57:38.114Z,31.30
2023-01-07T01:00:05.270Z,31.40
2023-01-07T01:02:32.243Z,30.90
2023-01-07T01:05:00.269Z,30.60
2023-01-07T01:07:27.204Z,30.80
2023-01-07T01:09:54.071Z,30.50
2023-01-07T01:12:20.914Z,30.10
2023-01-07T01:14:47.894Z,29.60
2023-01-07T01:17:14.782Z,29.00
2023-01-07T01:19:41.944Z,29.80
2023-01-07T01:22:09.095Z,30.50
2023-01-07T01:24:36.003Z,30.60
2023-01-07T01:27:03.049Z,30.60
2023-01-07T01:29:29.981Z,30.50
2023-01-07T01:31:57.593Z,30.70
2023-01-07T01:34:24.679Z,30.40
2023-01-07T01:36:51.740Z,29.50
2023-01-07T01:39:20.626Z,29.00
2023-01-07T01:41:47.816Z,28.90
2023-01-07T01:44:32.827Z,28.40
2023-01-07T01:47:00.253Z,29.10
2023-01-07T01:49:30.204Z,30.40
2023-01-07T01:52:03.027Z,31.10
2023-01-07T01:54:30.042Z,31.60
2023-01-07T01:56:58.999Z,32.30
2023-01-07T01:59:27.097Z,32.50
2023-01-07T02:01:54.362Z,32.30
2023-01-07T02:04:22.360Z,32.20
2023-01-07T02:06:56.322Z,32.00
2023-01-07T02:09:23.204Z,30.40
2023-01-07T02:12:10.371Z,29.20
2023-01-07T02:14:53.542Z,28.20
2023-01-07T02:17:26.499Z,28.20
2023-01-07T02:19:53.580Z,27.80
2023-01-07T02:22:39.057Z,27.80
2023-01-07T02:25:06.228Z,27.90
2023-01-07T02:27:42.578Z,27.90
2023-01-07T02:30:12.410Z,28.70
2023-01-07T02:32:42.365Z,29.30
2023-01-07T02:35:15.620Z,29.60
2023-01-07T02:38:05.780Z,30.10
2023-01-07T02:40:43.568Z,30.00
2023-01-07T02:43:16.624Z,30.10
2023-01-07T02:46:03.879Z,29.80
2023-01-07T02:48:31.921Z,28.60
2023-01-07T02:50:58.861Z,28.30
2023-01-07T02:53:25.942Z,28.80
2023-01-07T02:56:03.257Z,29.50
2023-01-07T02:58:49.090Z,30.30
2023-01-07T03:01:19.062Z,30.70
2023-01-07T03:03:55.229Z,30.20
2023-01-07T03:06:40.595Z,30.30
2023-01-07T03:09:07.652Z,30.40
2023-01-07T03:11:39.359Z,30.20
2023-01-07T03:14:29.243Z,29.90
2023-01-07T03:17:00.472Z,29.50
2023-01-07T03:19:38.571Z,29.20
2023-01-07T03:22:06.589Z,29.50
2023-01-07T03:24:33.742Z,29.80
2023-01-07T03:27:01.978Z,29.50
2023-01-07T03:29:29.379Z,28.60
2023-01-07T03:32:08.754Z,27.90
2023-01-07T03:34:37.485Z,27.90
2023-01-07T03:37:07.495Z,27.80
2023-01-07T03:39:35.536Z,28.50
2023-01-07T03:42:24.591Z,28.50
2023-01-07T03:44:51.570Z,28.70
2023-01-07T03:47:18.762Z,29.70
2023-01-07T03:49:45.795Z,29.90
2023-01-07T03:52:12.812Z,29.40
2023-01-07T03:54:39.858Z,29.20
2023-01-07T03:57:06.750Z,28.70
2023-01-07T03:59:33.625Z,28.30
2023-01-07T04:02:00.652Z,28.10
2023-01-07T04:04:27.768Z,28.50
2023-01-07T04:06:54.667Z,28.40
2023-01-07T04:09:22.181Z,29.00
2023-01-07T04:11:49.080Z,29.30
2023-01-07T04:14:16.022Z,30.00
2023-01-07T04:16:43.016Z,30.30
2023-01-07T04:19:10.034Z,29.90
2023-01-07T04:21:36.906Z,29.90
2023-01-07T04:24:03.850Z,30.00
2023-01-07T04:26:32.283Z,30.00
2023-01-07T04:28:59.382Z,30.10
2023-01-07T04:31:26.659Z,30.10
2023-01-07T04:33:53.789Z,29.80
2023-01-07T04:36:20.825Z,29.60
2023-01-07T04:38:48.123Z,29.40
2023-01-07T04:41:15.051Z,29.30
2023-01-07T04:43:41.958Z,29.40
2023-01-07T04:46:08.980Z,29.30
2023-01-07T04:48:35.980Z,28.80
2023-01-07T04:51:02.935Z,28.70
2023-01-07T04:53:29.868Z,28.20
2023-01-07T04:55:56.729Z,27.90
2023-01-07T04:58:23.693Z,26.80
2023-01-07T05:00:51.417Z,27.30
2023-01-07T05:03:20.016Z,27.30
2023-01-07T05:05:46.971Z,27.10
2023-01-07T05:08:13.836Z,27.60
2023-01-07T05:10:40.719Z,27.40
2023-01-07T05:13:07.642Z,27.90
2023-01-07T05:15:34.531Z,28.40
2023-01-07T05:18:01.429Z,29.20
2023-01-07T05:20:28.313Z,30.00
2023-01-07T05:22:55.452Z,30.80
2023-01-07T05:25:22.466Z,31.40
2023-01-07T05:27:49.475Z,31.60
2023-01-07T05:30:16.476Z,31.60
2023-01-07T05:32:43.351Z,31.90
2023-01-07T05:35:10.420Z,32.20
2023-01-07T05:37:37.271Z,32.10
2023-01-07T05:40:04.684Z,31.60
2023-01-07T05:42:31.752Z,31.90
2023-01-07T05:44:58.809Z,31.80
2023-01-07T05:47:25.779Z,31.90
2023-01-07T05:49:52.757Z,32.10
2023-01-07T05:52:19.652Z,32.30
2023-01-07T05:54:46.673Z,31.80
2023-01-07T05:57:14.066Z,30.90
2023-01-07T05:59:41.090Z,31.10
2023-01-07T06:02:07.977Z,31.30
2023-01-07T06:04:34.890Z,31.90
2023-01-07T06:07:01.772Z,32.20
2023-01-07T06:09:30.693Z,32.20
2023-01-07T06:11:57.619Z,32.30
2023-01-07T06:14:24.529Z,32.30
2023-01-07T06:16:51.439Z,32.20
2023-01-07T06:19:18.375Z,31.90
2023-01-07T06:21:45.270Z,32.00
2023-01-07T06:24:12.210Z,31.90
2023-01-07T06:26:39.121Z,32.30
2023-01-07T06:29:06.115Z,32.50
2023-01-07T06:31:33.081Z,32.60
2023-01-07T06:34:00.003Z,32.10
2023-01-07T06:36:26.888Z,32.30
2023-01-07T06:38:53.821Z,31.60
2023-01-07T06:41:20.955Z,30.70
2023-01-07T06:43:47.874Z,30.40
2023-01-07T06:46:14.987Z,30.40
2023-01-07T06:48:41.933Z,30.90
2023-01-07T06:51:08.843Z,31.40
2023-01-07T06:53:35.935Z,31.60
2023-01-07T06:56:03.115Z,31.80
2023-01-07T06:58:30.019Z,31.80
2023-01-07T07:00:57.268Z,32.00
2023-01-07T07:03:24.410Z,32.00
2023-01-07T07:05:51.306Z,31.90
2023-01-07T07:08:18.203Z,32.20
2023-01-07T07:10:45.101Z,32.40
2023-01-07T07:13:12.212Z,32.50
2023-01-07T07:15:39.126Z,32.10
2023-01-07T07:18:06.066Z,31.70
2023-01-07T07:20:32.975Z,31.50
2023-01-07T07:22:59.828Z,30.90
2023-01-07T07:25:26.739Z,31.00
2023-01-07T07:27:53.679Z,31.00
2023-01-07T07:30:21.016Z,31.10
2023-01-07T07:32:47.879Z,30.70
2023-01-07T07:35:14.970Z,31.00
2023-01-07T07:37:42.046Z,30.90
2023-01-07T07:40:09.411Z,30.90
2023-01-07T07:43:10.357Z,30.60
2023-01-07T07:45:25.631Z,30.80
2023-01-07T07:47:52.552Z,30.50
2023-01-07T07:50:19.508Z,30.10
2023-01-07T07:52:46.403Z,30.90
2023-01-07T07:55:20.562Z,31.30
2023-01-07T07:57:56.662Z,31.90
2023-01-07T08:00:23.834Z,32.00
2023-01-07T08:02:51.118Z,32.30
2023-01-07T08:05:18.188Z,32.40
2023-01-07T08:07:45.091Z,32.70
2023-01-07T08:10:12.136Z,32.80
2023-01-07T08:12:39.249Z,32.80
2023-01-07T08:15:07.114Z,32.60
2023-01-07T08:17:34.401Z,32.50
2023-01-07T08:20:01.264Z,32.10
2023-01-07T08:22:28.178Z,32.00
2023-01-07T08:24:55.053Z,31.80
2023-01-07T08:27:22.168Z,31.40
2023-01-07T08:29:49.103Z,31.30
2023-01-07T08:32:16.179Z,31.00
2023-01-07T08:34:43.236Z,30.30
2023-01-07T08:37:10.095Z,30.80
2023-01-07T08:39:37.488Z,30.30
2023-01-07T08:42:04.557Z,30.50
2023-01-07T08:44:32.573Z,31.00
2023-01-07T08:46:59.681Z,30.80
2023-01-07T08:49:26.599Z,30.70
2023-01-07T08:51:53.559Z,30.30
2023-01-07T08:54:20.472Z,30.50
2023-01-07T08:56:47.372Z,30.70
2023-01-07T08:59:14.427Z,30.60
2023-01-07T09:01:41.464Z,30.70
2023-01-07T09:04:08.557Z,30.70
2023-01-07T09:06:35.434Z,31.50
2023-01-07T09:09:02.317Z,31.40
2023-01-07T09:11:29.304Z,30.20
2023-01-07T09:13:56.188Z,30.80
2023-01-07T09:16:23.326Z,31.00
2023-01-07T09:18:50.396Z,30.30
2023-01-07T09:21:17.361Z,30.70
2023-01-07T09:23:44.224Z,30.90
2023-01-07T09:26:11.175Z,30.70
2023-01-07T09:28:38.119Z,30.90
2023-01-07T09:31:05.621Z,31.50
2023-01-07T09:33:32.869Z,31.70
2023-01-07T09:35:59.829Z,31.90
2023-01-07T09:38:26.737Z,31.00
2023-01-07T09:40:53.846Z,31.00
2023-01-07T09:43:26.651Z,31.00
2023-01-07T09:46:14.328Z,31.70
2023-01-07T09:48:49.426Z,31.10
2023-01-07T09:51:25.029Z,30.90
2023-01-07T09:53:53.114Z,30.90
2023-01-07T09:56:26.053Z,30.80
2023-01-07T09:58:53.615Z,31.00
2023-01-07T10:01:20.516Z,30.50
2023-01-07T10:03:59.643Z,30.00
2023-01-07T10:06:44.231Z,29.90
2023-01-07T10:09:11.550Z,30.30
2023-01-07T10:11:44.261Z,30.00
2023-01-07T10:14:33.814Z,30.40
2023-01-07T10:17:00.893Z,30.50
2023-01-07T10:19:33.484Z,30.30
2023-01-07T10:22:07.500Z,29.90
2023-01-07T10:24:38.274Z,29.40
2023-01-07T10:27:09.890Z,29.30
2023-01-07T10:29:43.792Z,30.70
2023-01-07T10:32:21.047Z,30.10
2023-01-07T10:34:49.872Z,30.10
2023-01-07T10:37:23.626Z,30.10
2023-01-07T10:40:09.348Z,29.00
2023-01-07T10:42:49.871Z,28.90
2023-01-07T10:45:24.881Z,29.80
2023-01-07T10:47:51.741Z,30.00
2023-01-07T10:50:24.434Z,30.20
2023-01-07T10:52:58.793Z,30.80
2023-01-07T10:55:35.047Z,29.60
2023-01-07T10:58:02.875Z,30.20
2023-01-07T11:00:30.020Z,30.50
2023-01-07T11:02:58.343Z,30.70
2023-01-07T11:05:33.977Z,29.90
2023-01-07T11:08:04.540Z,30.00
2023-01-07T11:10:33.899Z,29.70
2023-01-07T11:13:03.586Z,29.80
2023-01-07T11:15:38.199Z,29.50
2023-01-07T11:18:07.370Z,29.70
2023-01-07T11:20:44.910Z,30.40
2023-01-07T11:23:37.904Z,30.20
2023-01-07T11:26:28.052Z,30.30
2023-01-07T11:28:56.208Z,30.40
2023-01-07T11:31:24.457Z,30.10
2023-01-07T11:34:02.304Z,30.80
2023-01-07T11:36:43.437Z,30.20
2023-01-07T11:39:22.003Z,30.70
2023-01-07T11:41:58.125Z,30.60
2023-01-07T11:44:25.624Z,30.00
2023-01-07T11:46:52.877Z,30.00
2023-01-07T11:49:22.301Z,29.90
2023-01-07T11:51:49.781Z,29.90
2023-01-07T11:54:21.507Z,30.00
2023-01-07T11:56:48.477Z,29.90
2023-01-07T11:59:22.429Z,30.20
2023-01-07T12:01:57.105Z,30.50
2023-01-07T12:04:25.681Z,30.60
2023-01-07T12:06:53.993Z,30.60
2023-01-07T12:09:41.154Z,30.60
2023-01-07T12:12:31.844Z,31.00
2023-01-07T12:15:00.016Z,31.00
2023-01-07T12:17:29.206Z,30.80
2023-01-07T12:19:59.171Z,30.60
2023-01-07T12:22:45.050Z,30.50
2023-01-07T12:25:18.088Z,30.10
2023-01-07T12:27:54.362Z,29.30
2023-01-07T12:30:27.487Z,29.00
2023-01-07T12:33:03.212Z,28.80
2023-01-07T12:35:32.340Z,28.20
2023-01-07T12:38:03.871Z,28.90
2023-01-07T12:40:33.103Z,29.50
2023-01-07T12:43:04.049Z,29.90
2023-01-07T12:45:43.345Z,29.50
2023-01-07T12:48:16.894Z,28.50
2023-01-07T12:50:48.626Z,29.00
2023-01-07T12:53:15.557Z,29.50
2023-01-07T12:55:46.004Z,29.80
2023-01-07T12:58:18.612Z,29.80
2023-01-07T13:00:50.965Z,29.70
2023-01-07T13:03:29.899Z,29.90
2023-01-07T13:05:58.753Z,29.80
2023-01-07T13:08:33.149Z,29.90
2023-01-07T13:11:05.534Z,30.50
2023-01-07T13:13:38.010Z,31.40
2023-01-07T13:16:05.835Z,31.50
2023-01-07T13:18:33.014Z,31.90
2023-01-07T13:21:10.791Z,31.60
2023-01-07T13:24:00.520Z,31.90
2023-01-07T13:26:46.349Z,31.10
2023-01-07T13:29:19.327Z,31.20
2023-01-07T13:32:18.654Z,31.90
2023-01-07T13:35:04.289Z,32.20
2023-01-07T13:37:37.400Z,31.40
2023-01-07T13:40:13.122Z,31.50
2023-01-07T13:42:56.295Z,31.40
2023-01-07T13:45:27.904Z,31.00
2023-01-07T13:47:56.629Z,30.90
2023-01-07T13:50:29.473Z,30.60
2023-01-07T13:53:00.542Z,30.80
2023-01-07T13:55:32.855Z,30.20
2023-01-07T13:58:00.151Z,30.50
2023-01-07T14:01:00.645Z,30.60
2023-01-07T14:03:27.614Z,30.80
2023-01-07T14:06:13.191Z,30.50
2023-01-07T14:08:40.063Z,30.20
2023-01-07T14:11:07.039Z,30.00
2023-01-07T14:13:40.278Z,30.00
2023-01-07T14:16:18.527Z,29.60
2023-01-07T14:18:57.471Z,29.40
2023-01-07T14:21:43.351Z,29.30
2023-01-07T14:24:19.454Z,28.90
2023-01-07T14:26:58.801Z,29.80
2023-01-07T14:29:44.059Z,29.50
2023-01-07T14:32:31.193Z,29.30
2023-01-07T14:35:03.552Z,29.30
2023-01-07T14:37:35.177Z,29.40
2023-01-07T14:40:22.679Z,29.90
2023-01-07T14:42:49.739Z,30.10
2023-01-07T14:45:35.343Z,29.70
2023-01-07T14:48:08.088Z,29.90
2023-01-07T14:50:34.953Z,30.00
2023-01-07T14:53:17.267Z,29.60
2023-01-07T14:56:03.066Z,29.40
2023-01-07T14:58:34.575Z,30.10
2023-01-07T15:01:25.092Z,30.00
2023-01-07T15:04:04.347Z,29.90
2023-01-07T15:06:34.296Z,29.80
2023-01-07T15:09:27.351Z,30.30
2023-01-07T15:12:14.164Z,30.10
2023-01-07T15:14:59.682Z,29.90
2023-01-07T15:17:26.790Z,29.90
2023-01-07T15:19:54.720Z,29.80
2023-01-07T15:22:43.138Z,29.10
2023-01-07T15:25:18.999Z,29.50
2023-01-07T15:27:45.910Z,29.50
2023-01-07T15:30:18.653Z,29.80
2023-01-07T15:32:45.886Z,29.60
2023-01-07T15:35:17.101Z,29.40
2023-01-07T15:37:48.730Z,29.30
2023-01-07T15:40:17.280Z,29.50
2023-01-07T15:42:45.289Z,29.50
2023-01-07T15:45:16.328Z,29.90
2023-01-07T15:47:43.714Z,29.30
2023-01-07T15:50:29.455Z,29.80
2023-01-07T15:53:19.558Z,29.20
2023-01-07T15:55:49.306Z,29.20
2023-01-07T15:58:18.812Z,29.30
2023-01-07T16:00:49.605Z,29.00
2023-01-07T16:03:17.271Z,28.90
2023-01-07T16:05:44.305Z,29.00
2023-01-07T16:08:22.226Z,28.90
2023-01-07T16:10:57.686Z,28.60
2023-01-07T16:13:24.641Z,28.20
2023-01-07T16:15:55.448Z,28.70
2023-01-07T16:18:22.446Z,28.90
2023-01-07T16:20:49.436Z,29.00
2023-01-07T16:23:25.168Z,28.90
2023-01-07T16:26:01.589Z,28.80
2023-01-07T16:28:31.311Z,28.60
2023-01-07T16:30:58.733Z,28.60
2023-01-07T16:33:27.339Z,28.60
2023-01-07T16:35:56.683Z,28.70
2023-01-07T16:38:24.307Z,28.80
2023-01-07T16:40:51.271Z,28.60
2023-01-07T16:43:31.971Z,28.80
2023-01-07T16:46:14.302Z,29.50
2023-01-07T16:48:41.376Z,28.90
2023-01-07T16:51:27.215Z,29.00
2023-01-07T16:53:54.184Z,29.30
2023-01-07T16:56:21.176Z,28.70
2023-01-07T16:58:50.058Z,28.40
2023-01-07T17:01:19.588Z,28.90
2023-01-07T17:03:48.897Z,29.40
2023-01-07T17:06:17.022Z,29.70
2023-01-07T17:08:54.322Z,29.50
2023-01-07T17:11:35.784Z,29.40
2023-01-07T17:14:02.744Z,29.30
2023-01-07T17:16:33.595Z,29.60
2023-01-07T17:19:21.056Z,30.20
2023-01-07T17:21:48.099Z,30.20
2023-01-07T17:24:40.881Z,29.90
2023-01-07T17:27:16.602Z,30.00
2023-01-07T17:29:43.627Z,30.10
2023-01-07T17:32:12.839Z,30.00
2023-01-07T17:34:39.706Z,29.50
2023-01-07T17:37:09.789Z,29.10
2023-01-07T17:39:36.700Z,29.10
2023-01-07T17:42:22.060Z,29.30
2023-01-07T17:44:49.795Z,29.30
2023-01-07T17:47:16.750Z,29.60
2023-01-07T17:49:43.750Z,29.50
2023-01-07T17:52:10.930Z,29.60
2023-01-07T17:54:38.184Z,29.40
2023-01-07T17:57:05.112Z,29.80
2023-01-07T17:59:33.111Z,29.90
2023-01-07T18:02:00.820Z,29.70
2023-01-07T18:04:27.956Z,29.60
2023-01-07T18:06:54.876Z,29.90
2023-01-07T18:09:21.784Z,30.40
2023-01-07T18:12:07.276Z,30.10
2023-01-07T18:14:34.273Z,29.90
2023-01-07T18:17:01.186Z,30.50
2023-01-07T18:19:28.369Z,30.30
2023-01-07T18:21:55.294Z,30.50
2023-01-07T18:24:23.300Z,30.90
2023-01-07T18:26:50.176Z,30.80
2023-01-07T18:29:17.116Z,31.20
2023-01-07T18:31:44.813Z,30.90
2023-01-07T18:34:12.723Z,30.00
2023-01-07T18:36:39.970Z,30.60
2023-01-07T18:39:09.981Z,30.70
2023-01-07T18:41:38.562Z,31.10
2023-01-07T18:44:05.622Z,31.40
2023-01-07T18:46:32.505Z,31.40
2023-01-07T18:48:59.977Z,31.10
2023-01-07T18:51:26.917Z,30.60
2023-01-07T18:53:53.865Z,30.70
2023-01-07T18:56:22.180Z,30.80
2023-01-07T18:58:52.711Z,30.80
2023-01-07T19:01:19.796Z,30.90
2023-01-07T19:03:46.996Z,31.30
2023-01-07T19:06:14.598Z,30.80
2023-01-07T19:08:41.605Z,30.80
2023-01-07T19:11:09.309Z,29.90
2023-01-07T19:13:38.580Z,30.20
2023-01-07T19:16:07.086Z,30.70
2023-01-07T19:18:34.297Z,31.20
2023-01-07T19:21:02.101Z,30.60
2023-01-07T19:23:29.145Z,30.40
2023-01-07T19:26:00.333Z,29.80
2023-01-07T19:28:27.711Z,29.50
2023-01-07T19:30:54.863Z,29.90
2023-01-07T19:33:21.780Z,30.20
2023-01-07T19:35:48.926Z,30.10
2023-01-07T19:38:16.576Z,30.30
2023-01-07T19:40:47.596Z,30.00
2023-01-07T19:43:14.535Z,30.50
2023-01-07T19:45:41.508Z,30.60
2023-01-07T19:48:08.531Z,30.80
2023-01-07T19:50:35.628Z,31.60
2023-01-07T19:53:02.707Z,31.30
2023-01-07T19:55:29.592Z,31.60
2023-01-07T19:57:56.655Z,31.70
2023-01-07T20:00:23.692Z,31.60
2023-01-07T20:02:51.118Z,31.10
2023-01-07T20:05:18.285Z,31.20
2023-01-07T20:07:45.281Z,30.90
2023-01-07T20:10:12.268Z,30.70
2023-01-07T20:12:39.366Z,30.70
2023-01-07T20:15:06.582Z,30.10
2023-01-07T20:17:33.618Z,29.20
2023-01-07T20:20:00.524Z,29.20
2023-01-07T20:22:28.529Z,29.50
2023-01-07T20:24:55.600Z,29.70
2023-01-07T20:27:23.054Z,30.10
2023-01-07T20:29:49.991Z,30.30
2023-01-07T20:32:18.996Z,30.10
2023-01-07T20:34:46.896Z,30.00
2023-01-07T20:37:13.905Z,29.70
2023-01-07T20:39:40.791Z,29.90
2023-01-07T20:42:07.703Z,29.90
2023-01-07T20:44:34.787Z,30.60
2023-01-07T20:47:02.217Z,30.40
2023-01-07T20:49:29.188Z,30.60
2023-01-07T20:51:56.086Z,31.30
2023-01-07T20:54:22.954Z,30.80
2023-01-07T20:56:49.939Z,30.90
2023-01-07T20:59:17.356Z,30.90
2023-01-07T21:01:44.682Z,30.90
2023-01-07T21:04:12.098Z,30.50
2023-01-07T21:06:39.139Z,30.00
2023-01-07T21:09:06.017Z,30.60
2023-01-07T21:11:33.094Z,30.50
2023-01-07T21:14:00.006Z,30.40
2023-01-07T21:16:28.554Z,30.10
2023-01-07T21:18:56.114Z,30.00
2023-01-07T21:21:25.454Z,29.80
2023-01-07T21:23:53.781Z,30.40
2023-01-07T21:26:21.544Z,30.50
2023-01-07T21:28:48.707Z,30.10
2023-01-07T21:31:16.322Z,30.30
2023-01-07T21:33:43.489Z,29.70
2023-01-07T21:36:11.973Z,30.20
2023-01-07T21:38:39.429Z,30.00
2023-01-07T21:41:07.566Z,30.10
2023-01-07T21:43:37.233Z,29.90
2023-01-07T21:46:04.821Z,29.80
2023-01-07T21:48:32.740Z,30.20
2023-01-07T21:51:04.782Z,30.00
2023-01-07T21:53:32.276Z,29.80
2023-01-07T21:56:05.101Z,29.30
2023-01-07T21:58:32.076Z,29.90
2023-01-07T22:01:01.200Z,29.50
2023-01-07T22:03:29.490Z,30.10
2023-01-07T22:05:57.521Z,29.90
2023-01-07T22:08:24.872Z,29.60
2023-01-07T22:10:52.156Z,29.70
2023-01-07T22:13:19.483Z,29.80
2023-01-07T22:15:46.428Z,29.30
2023-01-07T22:18:13.366Z,28.90
2023-01-07T22:20:40.621Z,29.00
2023-01-07T22:23:07.922Z,28.90
2023-01-07T22:25:34.937Z,28.70
2023-01-07T22:28:03.602Z,28.00
2023-01-07T22:30:32.564Z,28.20
2023-01-07T22:32:59.561Z,28.50
2023-01-07T22:35:28.725Z,29.20
2023-01-07T22:37:55.998Z,29.60
2023-01-07T22:40:22.983Z,29.50
2023-01-07T22:42:53.327Z,29.30
2023-01-07T22:45:24.957Z,29.00
2023-01-07T22:47:52.072Z,29.10
2023-01-07T22:50:19.096Z,28.70
2023-01-07T22:52:46.134Z,29.10
2023-01-07T22:55:13.254Z,28.90
2023-01-07T22:57:40.387Z,29.00
2023-01-07T23:00:10.224Z,28.60
2023-01-07T23:02:37.153Z,28.20
2023-01-07T23:05:04.141Z,28.40
2023-01-07T23:07:31.401Z,29.00
2023-01-07T23:10:00.995Z,29.50
2023-01-07T23:12:28.051Z,29.60
2023-01-07T23:14:55.181Z,29.70
2023-01-07T23:17:22.051Z,29.60
2023-01-07T23:19:49.029Z,28.80
2023-01-07T23:22:15.890Z,28.50
2023-01-07T23:24:42.767Z,28.60
2023-01-07T23:27:09.648Z,28.90
2023-01-07T23:29:36.695Z,29.20
2023-01-07T23:32:03.702Z,29.60
2023-01-07T23:34:30.595Z,29.50
2023-01-07T23:36:57.455Z,28.80
2023-01-07T23:39:24.339Z,28.70
2023-01-07T23:41:51.172Z,28.90
2023-01-07T23:44:18.249Z,28.80
2023-01-07T23:46:46.001Z,28.90
2023-01-07T23:49:12.926Z,29.30
2023-01-07T23:51:40.415Z,29.20
2023-01-07T23:54:07.329Z,29.50
2023-01-07T23:56:34.327Z,29.40
2023-01-07T23:59:03.054Z,28.70
